• Join FlightAware (Why Join?)
  • Login
  • US Flag 
Gobble Gobble! 
09:14AM EST


 

Airport Tracker/Info


-or-


 

Live Flight TrackerFlight Track Log ✈ N960DL ✈ 20-Jun-2013 ✈ KMSP - KATL

Flight Track Log - Related Links

Times and Time Zones

All times are in EDT time to prevent confusion due to time zone crossing. See the N960DL flight status page for this flight to view local times or setup timezone preferences in your user account.

Time Position Orientation Groundspeed Altitude Reporting Facility
EDT Latitude Longitude Course Direction KTS MPH feet Rate Location/Type
07:45AM 44.8500 -93.1500 125° Southeast 207 238 2,600  Level Minneapolis TRACON
07:46AM 44.8439 -93.0986 100° East 230 265 3,300 2,280 Climbing Minneapolis Center
07:47AM 44.5903 -92.9450 145° Southeast  Level Estimated
07:47AM 44.7975 -93.0161 128° Southeast 266 306 6,200  Level Minneapolis Center
07:48AM 44.4929 -92.8533 137° Southeast  Level Estimated
07:48AM 44.7403 -92.9442 138° Southeast 273 314 8,900  Level Minneapolis Center
07:49AM 44.3955 -92.7619 133° Southeast  Level Estimated
07:49AM 44.6628 -92.9292 172° South 280 322 11,400  Level Minneapolis Center
07:50AM 44.2980 -92.6709 120° Southeast  Level Estimated
07:50AM 44.5964 -92.8642 145° Southeast 311 358 13,400  Level Minneapolis Center
07:51AM 44.2004 -92.5802 125° Southeast  Level Estimated
07:51AM 44.5328 -92.7622 131° Southeast 354 407 14,500  Level Minneapolis Center
07:52AM 44.4644 -92.6508 131° Southeast 378 435 16,700 2,040 Climbing Minneapolis Center
07:53AM 44.4003 -92.5275 126° Southeast 391 450 18,700 1,920 Climbing Minneapolis Center
07:54AM 44.3283 -92.3683 122° Southeast 404 465 20,700 1,680 Climbing Minneapolis Center
07:55AM 44.2653 -92.2325 123° Southeast 417 480 22,200 1,560 Climbing Minneapolis Center
07:56AM 44.1994 -92.0944 124° Southeast 426 490 23,900 1,200 Climbing Minneapolis Center
07:57AM 44.1217 -91.9650 130° Southeast 435 501 24,700 780 Climbing Minneapolis Center
07:58AM 44.0361 -91.8300 131° Southeast 459 528 25,500 1,080 Climbing Minneapolis Center
07:59AM 43.9475 -91.6914 132° Southeast 477 549 27,000 1,500 Climbing Minneapolis Center
08:00AM 43.8519 -91.5383 131° Southeast 478 550 28,700 1,440 Climbing Minneapolis Center
08:01AM 43.7661 -91.4022 131° Southeast 475 547 30,000 1,140 Climbing Minneapolis Center
08:02AM 43.6806 -91.2683 131° Southeast 470 541 31,100 1,020 Climbing Minneapolis Center
08:03AM 43.5953 -91.1353 131° Southeast 467 537 32,200 960 Climbing Minneapolis Center
08:04AM 43.5269 -91.0294 132° Southeast 465 535 32,900 420 Climbing Chicago Center
08:05AM 43.4422 -90.9000 132° Southeast 459 528 33,000  Climbing Chicago Center
08:06AM 43.3394 -90.7428 132° Southeast 463 533 33,000  Level Chicago Center
08:07AM 43.2547 -90.6125 132° Southeast 461 531 33,000  Level Chicago Center
08:08AM 43.1694 -90.4831 132° Southeast 459 528 33,000  Level Chicago Center
08:09AM 43.0825 -90.3542 133° Southeast 463 533 33,000  Level Chicago Center
08:10AM 42.9808 -90.2525 144° Southeast 462 532 33,000  Level Chicago Center
08:11AM 42.8569 -90.2186 169° South 457 526 33,000  Level Chicago Center
08:12AM 42.7067 -90.1814 170° South 460 529 33,000  Level Chicago Center
08:13AM 42.5822 -90.1486 169° South 459 528 33,000  Level Chicago Center
08:14AM 42.4578 -90.1169 169° South 457 526 33,000  Level Chicago Center
08:15AM 42.3328 -90.0864 170° South 459 528 33,000  Level Chicago Center
08:17AM 42.2086 -90.0550 169° South 456 525 33,000  Level Chicago Center
08:18AM 42.0614 -90.0189 170° South 452 520 33,000  Level Chicago Center
08:19AM 41.9383 -89.9894 170° South 452 520 33,000  Level Chicago Center
08:20AM 41.8169 -89.9592 169° South 448 516 33,000  Level Chicago Center
08:21AM 41.6978 -89.9283 169° South 448 516 33,000  Level Chicago Center
08:22AM 41.5744 -89.8975 169° South 449 517 33,000  Level Chicago Center
08:23AM 41.4250 -89.8606 169° South 453 521 33,000  Level Chicago Center
08:24AM 41.2994 -89.8297 170° South 456 525 33,000  Level Chicago Center
08:25AM 41.1750 -89.7986 169° South 456 525 33,000  Level Chicago Center
08:26AM 41.0497 -89.7672 169° South 457 526 33,000  Level Chicago Center
08:27AM 40.9108 -89.7336 170° South 455 524 33,000  Level Chicago Center
08:28AM 40.7853 -89.7025 169° South 460 529 33,000  Level Chicago Center
08:29AM 40.6594 -89.6719 170° South 465 535 33,000  Level Chicago Center
08:30AM 40.5339 -89.6425 170° South 462 532 33,000  Level Chicago Center
08:31AM 40.4114 -89.6150 170° South 454 522 33,000  Level Chicago Center
08:32AM 40.3372 -89.5969 169° South 454 522 33,000  Level Kansas City Center
08:33AM 40.2128 -89.5669 170° South 454 522 33,000  Level Kansas City Center
08:34AM 40.0892 -89.5372 170° South 451 519 33,000  Level Kansas City Center
08:35AM 39.9411 -89.5022 170° South 451 519 33,000  Level Kansas City Center
08:36AM 39.8181 -89.4742 170° South 449 517 33,000  Level Kansas City Center
08:37AM 39.6922 -89.4464 170° South 455 524 33,000  Level Kansas City Center
08:38AM 39.5767 -89.4189 170° South 458 527 33,000  Level Kansas City Center
08:39AM 39.4483 -89.3908 170° South 463 533 33,000  Level Kansas City Center
08:40AM 39.2925 -89.3561 170° South 470 541 33,000  Level Kansas City Center
08:41AM 39.1636 -89.3253 169° South 470 541 33,000  Level Kansas City Center
08:42AM 39.0344 -89.2972 170° South 469 540 33,000  Level Kansas City Center
08:43AM 38.8958 -89.2642 169° South 469 540 33,000  Level Kansas City Center
08:44AM 38.7669 -89.2364 170° South 469 540 33,000  Level Kansas City Center
08:45AM 38.6381 -89.2056 169° South 470 541 33,000  Level Kansas City Center
08:46AM 38.4981 -89.1750 170° South 472 543 33,000  Level Kansas City Center
08:47AM 38.3683 -89.1431 169° South 473 544 33,000  Level Kansas City Center
08:48AM 38.2406 -89.1000 165° South 475 547 33,000  Level Kansas City Center
08:49AM 38.1083 -89.0325 158° South 485 558 33,000  Level Kansas City Center
08:50AM 38.0128 -88.9156 136° Southeast 488 562 33,000  Level Kansas City Center
08:51AM 37.9142 -88.7972 137° Southeast 488 562 33,000  Level Kansas City Center
08:52AM 37.8150 -88.6794 137° Southeast 486 559 33,000  Level Kansas City Center
08:53AM 37.7192 -88.5611 136° Southeast 484 557 33,000  Level Kansas City Center
08:54AM 37.6222 -88.4436 136° Southeast 483 556 33,000  Level Kansas City Center
08:55AM 37.5256 -88.3239 135° Southeast 485 558 33,000  Level Kansas City Center
08:56AM 37.4489 -88.2278 135° Southeast 492 566 33,000  Level Memphis Center
08:57AM 37.3531 -88.1106 136° Southeast 486 559 33,000  Level Memphis Center
08:58AM 37.2489 -87.9883 137° Southeast 492 566 33,000  Level Memphis Center
08:59AM 37.1528 -87.8714 136° Southeast 492 566 33,000  Level Memphis Center
09:00AM 37.0544 -87.7550 137° Southeast 492 566 33,000  Level Memphis Center
09:01AM 36.9542 -87.6389 137° Southeast 487 560 33,000  Level Memphis Center
09:02AM 36.8581 -87.5408 141° Southeast 487 560 33,000  Level Memphis Center
09:03AM 36.7472 -87.4308 141° Southeast 499 574 33,000  Level Memphis Center
09:04AM 36.6425 -87.3261 141° Southeast 499 574 33,000  Level Memphis Center
09:05AM 36.5336 -87.2217 142° Southeast 499 574 33,000  Level Memphis Center
09:06AM 36.4269 -87.1175 142° Southeast 494 568 33,000  Level Memphis Center
09:07AM 36.3158 -87.0164 144° Southeast 494 568 33,000  Level Memphis Center
09:08AM 36.2022 -86.9053 142° Southeast 505 581 33,000  Level Memphis Center
09:09AM 36.0992 -86.7992 140° Southeast 502 578 33,000  Level Memphis Center
09:10AM 35.9939 -86.6961 142° Southeast 496 571 33,000  Level Memphis Center
09:11AM 35.8867 -86.5933 142° Southeast 496 571 33,000  Level Memphis Center
09:12AM 35.7792 -86.4906 142° Southeast 496 571 33,000  Level Memphis Center
09:14AM 35.5622 -86.2853 142° Southeast 499 574 33,000  Level Atlanta Center
09:15AM 35.4556 -86.1831 142° Southeast 493 567 33,000  Level Atlanta Center
09:16AM 35.3383 -86.0731 143° Southeast 493 567 33,000  Level Atlanta Center
09:17AM 35.2275 -85.9711 143° Southeast 498 573 33,000 -540 Level Atlanta Center
09:18AM 35.1306 -85.8850 144° Southeast 491 565 32,000 -1,140 Descending Atlanta Center
09:19AM 35.0194 -85.7889 145° Southeast 491 565 30,800 -1,320 Descending Atlanta Center
09:20AM 34.9081 -85.7003 147° Southeast 491 565 29,400 -1,680 Descending Atlanta Center
09:21AM 34.7922 -85.6094 147° Southeast 491 565 27,500 -2,220 Descending Atlanta Center
09:22AM 34.6808 -85.5214 147° Southeast 491 565 25,000 -2,520 Descending Atlanta Center
09:23AM 34.5711 -85.4339 147° Southeast 480 552 22,500 -2,700 Descending Atlanta Center
09:24AM 34.4719 -85.3489 145° Southeast 463 533 19,700 -2,580 Descending Atlanta Center
09:25AM 34.3808 -85.2669 143° Southeast 438 504 17,400 -2,520 Descending Atlanta Center
09:26AM 34.2897 -85.1878 144° Southeast 409 471 14,700 -2,220 Descending Atlanta Center
09:27AM 34.1967 -85.1136 147° Southeast 403 464 13,000 -900 Descending Atlanta Center
09:28AM 34.1031 -85.0522 151° Southeast 385 443 13,000 -240 Level Atlanta Center
09:29AM 34.0139 -85.0111 159° South 349 402 12,600 -960 Descending Atlanta Center
09:30AM 33.9347 -84.9728 158° South 316 364 11,100 -1,560 Descending Atlanta Center
09:31AM 33.8556 -84.9394 161° South 305 351 9,500 -1,320 Descending Atlanta Center
09:32AM 33.7742 -84.9361 178° South 299 344 8,500 -840 Descending Atlanta Center
09:33AM 33.6992 -84.9353 179° South 271 312 7,900 -780 Descending Atlanta Center
09:34AM 33.6367 -84.9122 163° South 241 277 7,000 -480 Descending Atlanta Center
09:35AM 33.6289 -84.8372 97° East 200 230 7,000 -600 Level Atlanta Center
09:36AM 33.6333 -84.7500 86° East 194 223 5,700 -960 Descending Atlanta TRACON
09:37AM 33.6333 -84.6833 90° East 183 211 4,900 -900 Descending Atlanta TRACON
09:38AM 33.6333 -84.6333 90° East 173 199 3,900 -1,020 Descending Atlanta TRACON